sensor_id;sensor_type;location;lat;lon;timestamp;pressure;altitude;pressure_sealevel;temperature;humidity
80198;BME280;69517;52.030;7.106;2024-02-28T00:01:36;101055.59;;;20.86;66.60
80198;BME280;69517;52.030;7.106;2024-02-28T00:04:03;101054.75;;;20.85;66.70
80198;BME280;69517;52.030;7.106;2024-02-28T00:06:30;101051.34;;;20.83;66.66
80198;BME280;69517;52.030;7.106;2024-02-28T00:08:57;101046.94;;;20.84;66.71
80198;BME280;69517;52.030;7.106;2024-02-28T00:11:23;101055.84;;;20.81;66.97
80198;BME280;69517;52.030;7.106;2024-02-28T00:13:49;101059.53;;;20.79;66.77
80198;BME280;69517;52.030;7.106;2024-02-28T00:16:16;101064.78;;;20.79;66.75
80198;BME280;69517;52.030;7.106;2024-02-28T00:18:42;101056.13;;;20.77;66.85
80198;BME280;69517;52.030;7.106;2024-02-28T00:21:08;101060.63;;;20.75;66.85
80198;BME280;69517;52.030;7.106;2024-02-28T00:23:36;101059.78;;;20.74;66.84
80198;BME280;69517;52.030;7.106;2024-02-28T00:26:03;101067.78;;;20.73;66.80
80198;BME280;69517;52.030;7.106;2024-02-28T00:28:29;101066.09;;;20.72;66.88
80198;BME280;69517;52.030;7.106;2024-02-28T00:30:55;101067.88;;;20.71;66.78
80198;BME280;69517;52.030;7.106;2024-02-28T00:33:22;101065.34;;;20.70;66.83
80198;BME280;69517;52.030;7.106;2024-02-28T00:35:48;101062.78;;;20.68;66.88
80198;BME280;69517;52.030;7.106;2024-02-28T00:38:14;101058.50;;;20.67;66.88
80198;BME280;69517;52.030;7.106;2024-02-28T00:40:42;101064.56;;;20.67;66.97
80198;BME280;69517;52.030;7.106;2024-02-28T00:43:08;101064.78;;;20.64;66.92
80198;BME280;69517;52.030;7.106;2024-02-28T00:45:35;101060.44;;;20.63;66.85
80198;BME280;69517;52.030;7.106;2024-02-28T00:48:01;101064.94;;;20.61;66.99
80198;BME280;69517;52.030;7.106;2024-02-28T00:50:28;101050.16;;;20.60;66.99
80198;BME280;69517;52.030;7.106;2024-02-28T00:52:54;101049.31;;;20.60;66.99
80198;BME280;69517;52.030;7.106;2024-02-28T00:55:20;101043.19;;;20.59;66.96
80198;BME280;69517;52.030;7.106;2024-02-28T00:57:48;101045.91;;;20.58;66.93
80198;BME280;69517;52.030;7.106;2024-02-28T01:00:15;101059.13;;;20.56;67.04
80198;BME280;69517;52.030;7.106;2024-02-28T01:02:41;101057.44;;;20.55;67.09
80198;BME280;69517;52.030;7.106;2024-02-28T01:05:08;101056.63;;;20.55;66.96
80198;BME280;69517;52.030;7.106;2024-02-28T01:07:34;101047.69;;;20.57;67.05
80198;BME280;69517;52.030;7.106;2024-02-28T01:10:00;101061.88;;;20.55;67.11
80198;BME280;69517;52.030;7.106;2024-02-28T01:12:27;101061.03;;;20.54;67.06
80198;BME280;69517;52.030;7.106;2024-02-28T01:17:57;101047.97;;;20.53;67.13
80198;BME280;69517;52.030;7.106;2024-02-28T01:20:23;101058.56;;;20.51;67.08
80198;BME280;69517;52.030;7.106;2024-02-28T01:22:50;101054.25;;;20.50;67.11
80198;BME280;69517;52.030;7.106;2024-02-28T01:25:16;101052.56;;;20.49;67.08
80198;BME280;69517;52.030;7.106;2024-02-28T01:27:43;101043.84;;;20.49;67.12
80198;BME280;69517;52.030;7.106;2024-02-28T01:30:10;101053.59;;;20.47;67.32
80198;BME280;69517;52.030;7.106;2024-02-28T01:32:36;101054.44;;;20.47;67.18
80198;BME280;69517;52.030;7.106;2024-02-28T01:35:05;101058.00;;;20.46;67.22
80198;BME280;69517;52.030;7.106;2024-02-28T01:37:31;101055.47;;;20.45;67.23
80198;BME280;69517;52.030;7.106;2024-02-28T01:39:58;101046.72;;;20.44;67.18
80198;BME280;69517;52.030;7.106;2024-02-28T01:42:24;101051.91;;;20.46;67.16
80198;BME280;69517;52.030;7.106;2024-02-28T01:44:50;101046.72;;;20.44;67.16
80198;BME280;69517;52.030;7.106;2024-02-28T01:47:17;101053.75;;;20.44;67.17
80198;BME280;69517;52.030;7.106;2024-02-28T01:49:43;101053.88;;;20.42;67.28
80198;BME280;69517;52.030;7.106;2024-02-28T01:52:11;101056.41;;;20.44;67.26
80198;BME280;69517;52.030;7.106;2024-02-28T01:54:37;101047.88;;;20.40;67.49
80198;BME280;69517;52.030;7.106;2024-02-28T01:57:04;101052.34;;;20.38;67.44
80198;BME280;69517;52.030;7.106;2024-02-28T01:59:31;101058.53;;;20.37;67.38
80198;BME280;69517;52.030;7.106;2024-02-28T02:01:57;101059.50;;;20.36;67.52
80198;BME280;69517;52.030;7.106;2024-02-28T02:04:24;101050.84;;;20.34;67.49
80198;BME280;69517;52.030;7.106;2024-02-28T02:06:50;101049.94;;;20.35;67.42
80198;BME280;69517;52.030;7.106;2024-02-28T02:09:20;101060.44;;;20.35;67.56
80198;BME280;69517;52.030;7.106;2024-02-28T02:11:46;101047.38;;;20.34;67.58
80198;BME280;69517;52.030;7.106;2024-02-28T02:14:13;101043.91;;;20.33;67.41
80198;BME280;69517;52.030;7.106;2024-02-28T02:16:39;101049.16;;;20.33;67.49
80198;BME280;69517;52.030;7.106;2024-02-28T02:19:06;101058.06;;;20.31;67.47
80198;BME280;69517;52.030;7.106;2024-02-28T02:21:34;101054.59;;;20.30;67.60
80198;BME280;69517;52.030;7.106;2024-02-28T02:24:05;101057.22;;;20.30;67.49
80198;BME280;69517;52.030;7.106;2024-02-28T02:26:31;101063.38;;;20.29;67.44
80198;BME280;69517;52.030;7.106;2024-02-28T02:28:57;101059.84;;;20.30;67.45
80198;BME280;69517;52.030;7.106;2024-02-28T02:31:24;101060.00;;;20.27;67.51
80198;BME280;69517;52.030;7.106;2024-02-28T02:33:50;101063.47;;;20.27;67.45
80198;BME280;69517;52.030;7.106;2024-02-28T02:36:17;101062.63;;;20.27;67.52
80198;BME280;69517;52.030;7.106;2024-02-28T02:38:43;101061.78;;;20.26;67.39
80198;BME280;69517;52.030;7.106;2024-02-28T02:41:11;101054.84;;;20.25;67.48
80198;BME280;69517;52.030;7.106;2024-02-28T02:43:37;101060.00;;;20.27;67.45
80198;BME280;69517;52.030;7.106;2024-02-28T02:46:04;101054.75;;;20.27;67.44
80198;BME280;69517;52.030;7.106;2024-02-28T02:48:30;101059.25;;;20.25;67.39
80198;BME280;69517;52.030;7.106;2024-02-28T02:50:56;101059.25;;;20.25;67.31
80198;BME280;69517;52.030;7.106;2024-02-28T02:53:23;101068.06;;;20.24;67.49
80198;BME280;69517;52.030;7.106;2024-02-28T02:55:49;101065.44;;;20.24;67.34
80198;BME280;69517;52.030;7.106;2024-02-28T02:58:17;101069.94;;;20.22;67.45
80198;BME280;69517;52.030;7.106;2024-02-28T03:00:43;101070.78;;;20.22;67.46
80198;BME280;69517;52.030;7.106;2024-02-28T03:03:09;101069.94;;;20.22;67.45
80198;BME280;69517;52.030;7.106;2024-02-28T03:05:36;101076.13;;;20.21;67.45
80198;BME280;69517;52.030;7.106;2024-02-28T03:08:02;101067.41;;;20.20;67.43
80198;BME280;69517;52.030;7.106;2024-02-28T03:10:29;101066.53;;;20.20;67.48
80198;BME280;69517;52.030;7.106;2024-02-28T03:12:55;101070.09;;;20.19;67.36
80198;BME280;69517;52.030;7.106;2024-02-28T03:15:23;101068.31;;;20.19;67.44
80198;BME280;69517;52.030;7.106;2024-02-28T03:17:49;101060.56;;;20.18;67.48
80198;BME280;69517;52.030;7.106;2024-02-28T03:20:15;101058.88;;;20.17;67.48
80198;BME280;69517;52.030;7.106;2024-02-28T03:22:42;101057.09;;;20.17;67.45
80198;BME280;69517;52.030;7.106;2024-02-28T03:25:09;101061.50;;;20.17;67.44
80198;BME280;69517;52.030;7.106;2024-02-28T03:27:35;101058.94;;;20.15;67.33
80198;BME280;69517;52.030;7.106;2024-02-28T03:30:01;101059.88;;;20.14;67.47
80198;BME280;69517;52.030;7.106;2024-02-28T03:32:29;101059.88;;;20.14;67.45
80198;BME280;69517;52.030;7.106;2024-02-28T03:34:56;101065.03;;;20.16;67.41
80198;BME280;69517;52.030;7.106;2024-02-28T03:37:22;101062.13;;;20.20;67.34
80198;BME280;69517;52.030;7.106;2024-02-28T03:39:48;101060.09;;;20.25;67.19
80198;BME280;69517;52.030;7.106;2024-02-28T03:42:15;101054.66;;;20.29;67.05
80198;BME280;69517;52.030;7.106;2024-02-28T03:44:41;101054.59;;;20.30;67.05
80198;BME280;69517;52.030;7.106;2024-02-28T03:47:08;101057.97;;;20.32;66.98
80198;BME280;69517;52.030;7.106;2024-02-28T03:49:36;101052.63;;;20.34;67.08
80198;BME280;69517;52.030;7.106;2024-02-28T03:52:02;101067.38;;;20.36;67.04
80198;BME280;69517;52.030;7.106;2024-02-28T03:54:31;101069.88;;;20.38;66.97
80198;BME280;69517;52.030;7.106;2024-02-28T03:56:57;101070.75;;;20.38;67.00
80198;BME280;69517;52.030;7.106;2024-02-28T03:59:24;101072.44;;;20.39;66.83
80198;BME280;69517;52.030;7.106;2024-02-28T04:01:50;101074.13;;;20.40;66.84
80198;BME280;69517;52.030;7.106;2024-02-28T04:04:17;101075.81;;;20.41;66.85
80198;BME280;69517;52.030;7.106;2024-02-28T04:06:44;101085.28;;;20.44;66.84
80198;BME280;69517;52.030;7.106;2024-02-28T04:09:11;101083.41;;;20.46;66.82
80198;BME280;69517;52.030;7.106;2024-02-28T04:11:37;101075.53;;;20.46;66.69
80198;BME280;69517;52.030;7.106;2024-02-28T04:14:04;101079.88;;;20.47;66.72
80198;BME280;69517;52.030;7.106;2024-02-28T04:16:30;101084.06;;;20.49;66.73
80198;BME280;69517;52.030;7.106;2024-02-28T04:18:56;101087.47;;;20.51;66.75
80198;BME280;69517;52.030;7.106;2024-02-28T04:21:23;101091.03;;;20.50;66.71
80198;BME280;69517;52.030;7.106;2024-02-28T04:23:50;101085.69;;;20.52;66.68
80198;BME280;69517;52.030;7.106;2024-02-28T04:26:17;101083.06;;;20.52;66.69
80198;BME280;69517;52.030;7.106;2024-02-28T04:28:43;101089.91;;;20.54;66.79
80198;BME280;69517;52.030;7.106;2024-02-28T04:31:09;101084.56;;;20.56;66.69
80198;BME280;69517;52.030;7.106;2024-02-28T04:33:36;101084.47;;;20.57;66.70
80198;BME280;69517;52.030;7.106;2024-02-28T04:36:03;101090.56;;;20.58;66.71
80198;BME280;69517;52.030;7.106;2024-02-28T04:38:29;101080.91;;;20.58;66.63
80198;BME280;69517;52.030;7.106;2024-02-28T04:40:57;101093.09;;;20.59;66.73
80198;BME280;69517;52.030;7.106;2024-02-28T04:43:23;101089.56;;;20.60;66.67
80198;BME280;69517;52.030;7.106;2024-02-28T04:45:49;101094.81;;;20.60;66.68
80198;BME280;69517;52.030;7.106;2024-02-28T04:48:16;101096.47;;;20.61;66.72
80198;BME280;69517;52.030;7.106;2024-02-28T04:50:42;101099.84;;;20.63;66.66
80198;BME280;69517;52.030;7.106;2024-02-28T04:53:08;101098.94;;;20.64;66.62
80198;BME280;69517;52.030;7.106;2024-02-28T04:55:35;101111.97;;;20.66;66.67
80198;BME280;69517;52.030;7.106;2024-02-28T04:58:02;101111.13;;;20.65;66.62
80198;BME280;69517;52.030;7.106;2024-02-28T05:00:29;101106.72;;;20.66;66.62
80198;BME280;69517;52.030;7.106;2024-02-28T05:02:55;101109.22;;;20.67;66.64
80198;BME280;69517;52.030;7.106;2024-02-28T05:05:22;101106.59;;;20.67;66.67
80198;BME280;69517;52.030;7.106;2024-02-28T05:07:48;101109.22;;;20.67;66.66
80198;BME280;69517;52.030;7.106;2024-02-28T05:10:14;101112.72;;;20.68;66.63
80198;BME280;69517;52.030;7.106;2024-02-28T05:12:41;101121.44;;;20.69;66.72
80198;BME280;69517;52.030;7.106;2024-02-28T05:15:09;101122.38;;;20.67;66.73
80198;BME280;69517;52.030;7.106;2024-02-28T05:17:35;101118.81;;;20.69;66.80
80198;BME280;69517;52.030;7.106;2024-02-28T05:20:02;101122.28;;;20.69;66.68
80198;BME280;69517;52.030;7.106;2024-02-28T05:22:28;101121.34;;;20.70;66.74
80198;BME280;69517;52.030;7.106;2024-02-28T05:24:55;101126.63;;;20.70;66.71
80198;BME280;69517;52.030;7.106;2024-02-28T05:27:21;101130.09;;;20.71;66.69
80198;BME280;69517;52.030;7.106;2024-02-28T05:29:47;101133.56;;;20.71;66.64
80198;BME280;69517;52.030;7.106;2024-02-28T05:32:15;101132.63;;;20.72;66.70
80198;BME280;69517;52.030;7.106;2024-02-28T05:34:42;101128.31;;;20.71;66.63
80198;BME280;69517;52.030;7.106;2024-02-28T05:37:09;101129.16;;;20.72;66.77
80198;BME280;69517;52.030;7.106;2024-02-28T05:39:35;101135.19;;;20.74;66.66
80198;BME280;69517;52.030;7.106;2024-02-28T05:42:01;101134.31;;;20.73;66.68
80198;BME280;69517;52.030;7.106;2024-02-28T05:44:28;101137.81;;;20.74;66.69
80198;BME280;69517;52.030;7.106;2024-02-28T05:46:55;101135.19;;;20.74;66.64
80198;BME280;69517;52.030;7.106;2024-02-28T05:49:22;101135.19;;;20.74;66.62
80198;BME280;69517;52.030;7.106;2024-02-28T05:51:49;101142.09;;;20.75;66.63
80198;BME280;69517;52.030;7.106;2024-02-28T05:54:15;101140.44;;;20.74;66.74
80198;BME280;69517;52.030;7.106;2024-02-28T05:56:41;101142.09;;;20.75;66.69
80198;BME280;69517;52.030;7.106;2024-02-28T05:59:08;101141.16;;;20.76;66.70
80198;BME280;69517;52.030;7.106;2024-02-28T06:01:34;101142.94;;;20.75;66.66
80198;BME280;69517;52.030;7.106;2024-02-28T06:04:00;101146.41;;;20.76;66.74
80198;BME280;69517;52.030;7.106;2024-02-28T06:06:29;101143.78;;;20.76;66.67
80198;BME280;69517;52.030;7.106;2024-02-28T06:08:55;101141.16;;;20.76;66.71
80198;BME280;69517;52.030;7.106;2024-02-28T06:11:22;101138.53;;;20.76;66.72
80198;BME280;69517;52.030;7.106;2024-02-28T06:13:49;101147.19;;;20.78;66.73
80198;BME280;69517;52.030;7.106;2024-02-28T06:16:16;101154.78;;;20.82;66.56
80198;BME280;69517;52.030;7.106;2024-02-28T06:18:43;101150.56;;;20.80;66.63
80198;BME280;69517;52.030;7.106;2024-02-28T06:21:10;101155.81;;;20.80;66.60
80198;BME280;69517;52.030;7.106;2024-02-28T06:23:37;101168.22;;;20.78;66.65
80198;BME280;69517;52.030;7.106;2024-02-28T06:26:04;101159.47;;;20.77;66.72
80198;BME280;69517;52.030;7.106;2024-02-28T06:28:30;101166.50;;;20.77;66.74
80198;BME280;69517;52.030;7.106;2024-02-28T06:30:57;101171.75;;;20.77;66.79
80198;BME280;69517;52.030;7.106;2024-02-28T06:33:23;101180.41;;;20.79;66.73
80198;BME280;69517;52.030;7.106;2024-02-28T06:35:50;101176.09;;;20.78;66.66
80198;BME280;69517;52.030;7.106;2024-02-28T06:38:16;101172.53;;;20.79;66.80
80198;BME280;69517;52.030;7.106;2024-02-28T06:40:44;101188.50;;;20.90;66.47
80198;BME280;69517;52.030;7.106;2024-02-28T06:43:10;101188.78;;;20.99;66.12
80198;BME280;69517;52.030;7.106;2024-02-28T06:45:36;101195.19;;;21.10;65.83
80198;BME280;69517;52.030;7.106;2024-02-28T06:48:03;101193.88;;;21.17;65.62
80198;BME280;69517;52.030;7.106;2024-02-28T06:50:29;101198.97;;;21.20;65.51
80198;BME280;69517;52.030;7.106;2024-02-28T06:52:56;101196.25;;;21.21;65.44
80198;BME280;69517;52.030;7.106;2024-02-28T06:55:22;101197.94;;;21.22;65.45
80198;BME280;69517;52.030;7.106;2024-02-28T06:57:50;101204.88;;;21.23;65.46
80198;BME280;69517;52.030;7.106;2024-02-28T07:00:16;101209.41;;;21.21;65.46
80198;BME280;69517;52.030;7.106;2024-02-28T07:02:44;101207.63;;;21.22;65.42
80198;BME280;69517;52.030;7.106;2024-02-28T07:05:10;101206.41;;;21.27;65.31
80198;BME280;69517;52.030;7.106;2024-02-28T07:07:36;101200.00;;;21.31;64.98
80198;BME280;69517;52.030;7.106;2024-02-28T07:10:03;101205.72;;;21.38;64.97
80198;BME280;69517;52.030;7.106;2024-02-28T07:12:30;101215.13;;;21.42;64.98
80198;BME280;69517;52.030;7.106;2024-02-28T07:14:58;101209.59;;;21.47;64.91
80198;BME280;69517;52.030;7.106;2024-02-28T07:17:24;101216.91;;;21.41;65.03
80198;BME280;69517;52.030;7.106;2024-02-28T07:19:50;101213.41;;;21.41;65.06
80198;BME280;69517;52.030;7.106;2024-02-28T07:22:17;101218.22;;;21.49;64.84
80198;BME280;69517;52.030;7.106;2024-02-28T07:24:43;101227.63;;;21.53;64.80
80198;BME280;69517;52.030;7.106;2024-02-28T07:27:09;101224.25;;;21.51;64.94
80198;BME280;69517;52.030;7.106;2024-02-28T07:29:36;101233.16;;;21.48;64.97
80198;BME280;69517;52.030;7.106;2024-02-28T07:32:04;101232.41;;;21.46;65.19
80198;BME280;69517;52.030;7.106;2024-02-28T07:34:30;101234.94;;;21.48;65.13
80198;BME280;69517;52.030;7.106;2024-02-28T07:36:57;101229.59;;;21.49;65.16
80198;BME280;69517;52.030;7.106;2024-02-28T07:39:23;101229.59;;;21.49;65.27
80198;BME280;69517;52.030;7.106;2024-02-28T07:41:49;101233.28;;;21.47;65.39
80198;BME280;69517;52.030;7.106;2024-02-28T07:44:16;101240.41;;;21.44;65.35
80198;BME280;69517;52.030;7.106;2024-02-28T07:46:43;101240.69;;;21.40;65.79
80198;BME280;69517;52.030;7.106;2024-02-28T07:49:10;101236.75;;;21.33;65.85
80198;BME280;69517;52.030;7.106;2024-02-28T07:51:37;101246.59;;;21.29;65.98
80198;BME280;69517;52.030;7.106;2024-02-28T07:54:05;101245.84;;;21.27;65.91
80198;BME280;69517;52.030;7.106;2024-02-28T07:56:31;101240.75;;;21.24;66.09
80198;BME280;69517;52.030;7.106;2024-02-28T07:58:58;101243.69;;;21.20;66.03
80198;BME280;69517;52.030;7.106;2024-02-28T08:01:24;101253.59;;;21.15;66.27
80198;BME280;69517;52.030;7.106;2024-02-28T08:03:51;101244.84;;;21.14;66.28
80198;BME280;69517;52.030;7.106;2024-02-28T08:06:18;101230.94;;;21.12;66.63
80198;BME280;69517;52.030;7.106;2024-02-28T08:08:45;101244.28;;;21.09;66.38
80198;BME280;69517;52.030;7.106;2024-02-28T08:11:11;101243.44;;;21.09;66.04
80198;BME280;69517;52.030;7.106;2024-02-28T08:13:38;101250.28;;;21.11;65.71
80198;BME280;69517;52.030;7.106;2024-02-28T08:16:04;101254.47;;;21.15;65.54
80198;BME280;69517;52.030;7.106;2024-02-28T08:18:33;101257.09;;;21.15;65.75
80198;BME280;69517;52.030;7.106;2024-02-28T08:21:00;101247.44;;;21.16;65.90
80198;BME280;69517;52.030;7.106;2024-02-28T08:23:29;101257.16;;;21.14;65.59
80198;BME280;69517;52.030;7.106;2024-02-28T08:25:55;101249.34;;;21.12;65.39
80198;BME280;69517;52.030;7.106;2024-02-28T08:28:21;101237.81;;;21.15;65.09
80198;BME280;69517;52.030;7.106;2024-02-28T08:30:48;101246.47;;;21.17;65.05
80198;BME280;69517;52.030;7.106;2024-02-28T08:33:14;101257.66;;;21.20;64.82
80198;BME280;69517;52.030;7.106;2024-02-28T08:35:41;101252.50;;;21.19;64.69
80198;BME280;69517;52.030;7.106;2024-02-28T08:38:08;101257.84;;;21.17;64.78
80198;BME280;69517;52.030;7.106;2024-02-28T08:40:35;101267.63;;;21.15;64.86
80198;BME280;69517;52.030;7.106;2024-02-28T08:43:02;101270.31;;;21.14;64.91
80198;BME280;69517;52.030;7.106;2024-02-28T08:45:28;101266.25;;;21.08;64.88
80198;BME280;69517;52.030;7.106;2024-02-28T08:47:55;101275.28;;;21.04;65.04
80198;BME280;69517;52.030;7.106;2024-02-28T08:50:22;101268.50;;;21.00;64.55
80198;BME280;69517;52.030;7.106;2024-02-28T08:52:49;101260.88;;;20.95;64.28
80198;BME280;69517;52.030;7.106;2024-02-28T08:55:15;101280.41;;;20.91;63.17
80198;BME280;69517;52.030;7.106;2024-02-28T08:57:45;101273.09;;;20.96;63.59
80198;BME280;69517;52.030;7.106;2024-02-28T09:00:12;101291.97;;;21.03;63.34
80198;BME280;69517;52.030;7.106;2024-02-28T09:02:40;101297.72;;;21.10;63.32
80198;BME280;69517;52.030;7.106;2024-02-28T09:05:06;101289.63;;;21.13;63.30
80198;BME280;69517;52.030;7.106;2024-02-28T09:07:34;101289.50;;;21.16;63.48
80198;BME280;69517;52.030;7.106;2024-02-28T09:10:00;101293.00;;;21.16;63.67
80198;BME280;69517;52.030;7.106;2024-02-28T09:12:27;101290.50;;;21.13;63.89
80198;BME280;69517;52.030;7.106;2024-02-28T09:14:55;101281.28;;;21.06;63.68
80198;BME280;69517;52.030;7.106;2024-02-28T09:17:22;101281.34;;;21.04;63.78
80198;BME280;69517;52.030;7.106;2024-02-28T09:19:49;101288.50;;;21.02;63.64
80198;BME280;69517;52.030;7.106;2024-02-28T09:22:16;101291.97;;;21.03;63.15
80198;BME280;69517;52.030;7.106;2024-02-28T09:24:43;101301.38;;;21.07;62.76
80198;BME280;69517;52.030;7.106;2024-02-28T09:27:09;101299.50;;;21.09;62.82
80198;BME280;69517;52.030;7.106;2024-02-28T09:29:34;101288.72;;;21.14;62.99
80198;BME280;69517;52.030;7.106;2024-02-28T09:32:02;101285.91;;;21.17;62.98
80198;BME280;69517;52.030;7.106;2024-02-28T09:34:29;101270.06;;;21.18;62.99
80198;BME280;69517;52.030;7.106;2024-02-28T09:36:56;101274.28;;;21.21;62.95
80198;BME280;69517;52.030;7.106;2024-02-28T09:39:22;101283.97;;;21.20;63.03
80198;BME280;69517;52.030;7.106;2024-02-28T09:41:48;101276.69;;;21.10;63.37
80198;BME280;69517;52.030;7.106;2024-02-28T09:44:15;101273.38;;;21.06;62.46
80198;BME280;69517;52.030;7.106;2024-02-28T09:46:43;101283.25;;;21.02;62.76
80198;BME280;69517;52.030;7.106;2024-02-28T09:49:10;101275.44;;;21.01;62.78
80198;BME280;69517;52.030;7.106;2024-02-28T09:51:37;101283.41;;;20.99;62.76
80198;BME280;69517;52.030;7.106;2024-02-28T09:54:03;101289.50;;;21.00;62.57
80198;BME280;69517;52.030;7.106;2024-02-28T09:56:30;101279.19;;;20.97;62.32
80198;BME280;69517;52.030;7.106;2024-02-28T09:58:56;101286.16;;;20.98;62.04
80198;BME280;69517;52.030;7.106;2024-02-28T10:01:23;101283.53;;;20.98;61.79
80198;BME280;69517;52.030;7.106;2024-02-28T10:03:51;101284.47;;;20.97;61.52
80198;BME280;69517;52.030;7.106;2024-02-28T10:06:19;101287.81;;;20.99;61.41
80198;BME280;69517;52.030;7.106;2024-02-28T10:08:46;101277.31;;;20.99;61.46
80198;BME280;69517;52.030;7.106;2024-02-28T10:11:17;101283.59;;;20.96;61.08
80198;BME280;69517;52.030;7.106;2024-02-28T10:13:43;101288.78;;;20.98;61.00
80198;BME280;69517;52.030;7.106;2024-02-28T10:16:09;101279.09;;;20.98;61.02
80198;BME280;69517;52.030;7.106;2024-02-28T10:18:36;101285.38;;;20.96;60.84
80198;BME280;69517;52.030;7.106;2024-02-28T10:21:02;101289.03;;;20.93;60.40
80198;BME280;69517;52.030;7.106;2024-02-28T10:23:31;101292.47;;;20.80;61.38
80198;BME280;69517;52.030;7.106;2024-02-28T10:25:57;101287.97;;;20.82;59.95
80198;BME280;69517;52.030;7.106;2024-02-28T10:28:24;101291.94;;;20.89;59.94
80198;BME280;69517;52.030;7.106;2024-02-28T10:30:50;101289.13;;;20.92;59.75
80198;BME280;69517;52.030;7.106;2024-02-28T10:33:16;101295.06;;;20.95;59.75
80198;BME280;69517;52.030;7.106;2024-02-28T10:35:43;101288.03;;;20.96;59.77
80198;BME280;69517;52.030;7.106;2024-02-28T10:38:10;101290.66;;;20.96;59.55
80198;BME280;69517;52.030;7.106;2024-02-28T10:40:38;101294.97;;;20.97;59.54
80198;BME280;69517;52.030;7.106;2024-02-28T10:43:05;101294.97;;;20.97;59.32
80198;BME280;69517;52.030;7.106;2024-02-28T10:45:33;101293.28;;;20.96;59.48
80198;BME280;69517;52.030;7.106;2024-02-28T10:48:02;101301.16;;;20.96;59.44
80198;BME280;69517;52.030;7.106;2024-02-28T10:50:29;101302.94;;;20.95;59.21
80198;BME280;69517;52.030;7.106;2024-02-28T10:52:56;101307.00;;;21.01;59.27
80198;BME280;69517;52.030;7.106;2024-02-28T10:55:25;101311.13;;;21.05;59.14
80198;BME280;69517;52.030;7.106;2024-02-28T10:57:58;101314.25;;;21.12;58.89
80198;BME280;69517;52.030;7.106;2024-02-28T11:00:27;101303.50;;;21.16;59.04
80198;BME280;69517;52.030;7.106;2024-02-28T11:02:53;101304.25;;;21.18;59.27
80198;BME280;69517;52.030;7.106;2024-02-28T11:05:20;101300.75;;;21.18;59.47
80198;BME280;69517;52.030;7.106;2024-02-28T11:07:50;101290.50;;;21.13;59.56
80198;BME280;69517;52.030;7.106;2024-02-28T11:10:17;101288.66;;;21.15;59.65
80198;BME280;69517;52.030;7.106;2024-02-28T11:12:43;101307.97;;;21.14;59.29
80198;BME280;69517;52.030;7.106;2024-02-28T11:15:24;101307.19;;;21.12;59.88
80198;BME280;69517;52.030;7.106;2024-02-28T11:17:51;101303.56;;;21.15;60.60
80198;BME280;69517;52.030;7.106;2024-02-28T11:20:18;101306.88;;;21.18;60.93
80198;BME280;69517;52.030;7.106;2024-02-28T11:22:45;101307.44;;;21.23;61.28
80198;BME280;69517;52.030;7.106;2024-02-28T11:25:11;101308.13;;;21.27;61.65
80198;BME280;69517;52.030;7.106;2024-02-28T11:27:45;101308.03;;;21.28;62.06
80198;BME280;69517;52.030;7.106;2024-02-28T11:30:12;101303.50;;;21.30;61.45
80198;BME280;69517;52.030;7.106;2024-02-28T11:32:39;101298.16;;;21.32;62.05
80198;BME280;69517;52.030;7.106;2024-02-28T11:35:06;101292.06;;;21.31;61.94
80198;BME280;69517;52.030;7.106;2024-02-28T11:37:32;101282.31;;;21.33;61.95
80198;BME280;69517;52.030;7.106;2024-02-28T11:40:00;101289.34;;;21.33;61.86
80198;BME280;69517;52.030;7.106;2024-02-28T11:42:26;101288.00;;;21.26;61.93
80198;BME280;69517;52.030;7.106;2024-02-28T11:44:53;101282.19;;;21.21;61.40
80198;BME280;69517;52.030;7.106;2024-02-28T11:47:20;101287.63;;;21.18;61.82
80198;BME280;69517;52.030;7.106;2024-02-28T11:49:49;101282.34;;;21.18;61.58
80198;BME280;69517;52.030;7.106;2024-02-28T11:52:16;101282.28;;;21.19;61.64
80198;BME280;69517;52.030;7.106;2024-02-28T11:54:42;101275.88;;;21.23;61.76
80198;BME280;69517;52.030;7.106;2024-02-28T11:57:08;101275.50;;;21.29;61.68
80198;BME280;69517;52.030;7.106;2024-02-28T11:59:39;101275.06;;;21.37;61.58
80198;BME280;69517;52.030;7.106;2024-02-28T12:02:11;101268.66;;;21.41;61.72
80198;BME280;69517;52.030;7.106;2024-02-28T12:04:37;101260.50;;;21.45;61.71
80198;BME280;69517;52.030;7.106;2024-02-28T12:07:05;101263.88;;;21.48;61.80
80198;BME280;69517;52.030;7.106;2024-02-28T12:09:31;101262.94;;;21.49;61.72
80198;BME280;69517;52.030;7.106;2024-02-28T12:11:59;101259.38;;;21.50;61.85
80198;BME280;69517;52.030;7.106;2024-02-28T12:14:26;101264.47;;;21.53;61.83
80198;BME280;69517;52.030;7.106;2024-02-28T12:16:53;101264.47;;;21.53;61.93
80198;BME280;69517;52.030;7.106;2024-02-28T12:19:19;101261.91;;;21.51;62.11
80198;BME280;69517;52.030;7.106;2024-02-28T12:21:46;101256.44;;;21.54;62.12
80198;BME280;69517;52.030;7.106;2024-02-28T12:24:13;101257.22;;;21.56;62.12
80198;BME280;69517;52.030;7.106;2024-02-28T12:26:40;101251.47;;;21.50;61.63
80198;BME280;69517;52.030;7.106;2024-02-28T12:29:06;101259.19;;;21.38;61.26
80198;BME280;69517;52.030;7.106;2024-02-28T12:31:34;101252.06;;;21.40;61.89
80198;BME280;69517;52.030;7.106;2024-02-28T12:34:01;101246.88;;;21.39;61.71
80198;BME280;69517;52.030;7.106;2024-02-28T12:36:28;101241.72;;;21.37;61.56
80198;BME280;69517;52.030;7.106;2024-02-28T12:38:56;101226.31;;;21.31;60.27
80198;BME280;69517;52.030;7.106;2024-02-28T12:41:23;101232.31;;;21.19;59.26
80198;BME280;69517;52.030;7.106;2024-02-28T12:43:50;101241.06;;;20.90;56.51
80198;BME280;69517;52.030;7.106;2024-02-28T12:46:16;101248.97;;;20.74;56.67
80198;BME280;69517;52.030;7.106;2024-02-28T12:48:43;101234.09;;;20.89;58.08
80198;BME280;69517;52.030;7.106;2024-02-28T12:51:13;101230.59;;;21.04;58.52